createdAt,value
2022-11-24T00:01:06.397Z,8.16
2022-11-24T00:03:33.471Z,8.15
2022-11-24T00:06:11.217Z,8.16
2022-11-24T00:08:39.937Z,8.14
2022-11-24T00:11:11.781Z,8.15
2022-11-24T00:13:39.361Z,8.15
2022-11-24T00:16:17.082Z,8.14
2022-11-24T00:18:46.055Z,8.12
2022-11-24T00:21:13.112Z,8.11
2022-11-24T00:23:39.741Z,8.07
2022-11-24T00:26:15.140Z,8.05
2022-11-24T00:28:42.781Z,8.05
2022-11-24T00:31:27.079Z,8.03
2022-11-24T00:33:56.379Z,7.97
2022-11-24T00:36:24.805Z,7.97
2022-11-24T00:38:55.771Z,7.96
2022-11-24T00:41:23.470Z,7.91
2022-11-24T00:43:50.183Z,7.90
2022-11-24T00:46:17.015Z,7.87
2022-11-24T00:48:43.799Z,7.86
2022-11-24T00:51:12.560Z,7.88
2022-11-24T00:53:39.112Z,7.86
2022-11-24T00:56:05.802Z,7.85
2022-11-24T00:58:33.050Z,7.85
2022-11-24T01:01:15.537Z,7.83
2022-11-24T01:03:43.298Z,7.83
2022-11-24T01:06:13.013Z,7.80
2022-11-24T01:08:40.285Z,7.78
2022-11-24T01:11:19.065Z,7.77
2022-11-24T01:13:49.149Z,7.75
2022-11-24T01:16:21.931Z,7.75
2022-11-24T01:18:48.891Z,7.73
2022-11-24T01:21:16.250Z,7.73
2022-11-24T01:23:42.841Z,7.70
2022-11-24T01:26:12.528Z,7.70
2022-11-24T01:28:44.856Z,7.69
2022-11-24T01:31:13.919Z,7.66
2022-11-24T01:33:40.435Z,7.69
2022-11-24T01:36:06.968Z,7.70
2022-11-24T01:38:33.629Z,7.70
2022-11-24T01:41:12.527Z,7.73
2022-11-24T01:43:39.529Z,7.79
2022-11-24T01:46:17.679Z,7.81
2022-11-24T01:48:49.048Z,7.85
2022-11-24T01:51:27.740Z,7.88
2022-11-24T01:54:00.922Z,7.90
2022-11-24T01:56:30.292Z,7.89
2022-11-24T01:59:00.321Z,7.93
2022-11-24T02:01:27.765Z,7.95
2022-11-24T02:03:54.732Z,7.99
2022-11-24T02:06:29.051Z,8.00
2022-11-24T02:09:13.589Z,8.02
2022-11-24T02:11:41.687Z,8.02
2022-11-24T02:14:11.498Z,8.01
2022-11-24T02:16:41.568Z,8.00
2022-11-24T02:19:22.729Z,8.02
2022-11-24T02:21:49.165Z,8.02
2022-11-24T02:24:25.398Z,8.03
2022-11-24T02:26:54.451Z,8.02
2022-11-24T02:29:21.101Z,8.02
2022-11-24T02:31:55.141Z,8.02
2022-11-24T02:34:21.559Z,8.02
2022-11-24T02:36:48.005Z,8.02
2022-11-24T02:39:15.349Z,8.03
2022-11-24T02:41:46.637Z,8.05
2022-11-24T02:44:15.483Z,8.06
2022-11-24T02:46:42.112Z,8.09
2022-11-24T02:49:08.602Z,8.12
2022-11-24T02:51:35.056Z,8.11
2022-11-24T02:54:01.556Z,8.12
2022-11-24T02:56:27.983Z,8.12
2022-11-24T02:58:54.485Z,8.14
2022-11-24T03:01:20.998Z,8.16
2022-11-24T03:03:47.525Z,8.16
2022-11-24T03:06:13.982Z,8.18
2022-11-24T03:08:40.401Z,8.17
2022-11-24T03:11:06.805Z,8.21
2022-11-24T03:13:33.502Z,8.21
2022-11-24T03:15:59.988Z,8.22
2022-11-24T03:18:26.481Z,8.19
2022-11-24T03:20:52.871Z,8.17
2022-11-24T03:23:19.324Z,8.19
2022-11-24T03:25:45.729Z,8.17
2022-11-24T03:28:12.142Z,8.16
2022-11-24T03:30:38.551Z,8.16
2022-11-24T03:33:07.147Z,8.15
2022-11-24T03:35:33.601Z,8.17
2022-11-24T03:38:00.081Z,8.16
2022-11-24T03:40:26.523Z,8.16
2022-11-24T03:42:52.955Z,8.17
2022-11-24T03:48:07.536Z,8.16
2022-11-24T03:50:33.928Z,8.15
2022-11-24T03:53:00.350Z,8.13
2022-11-24T03:55:26.778Z,8.12
2022-11-24T03:57:53.303Z,8.13
2022-11-24T04:00:19.852Z,8.13
2022-11-24T04:02:48.128Z,8.10
2022-11-24T04:05:15.007Z,8.08
2022-11-24T04:07:41.929Z,8.07
2022-11-24T04:10:08.952Z,8.09
2022-11-24T04:12:44.277Z,8.08
2022-11-24T04:15:20.902Z,8.07
2022-11-24T04:17:49.544Z,8.05
2022-11-24T04:20:17.323Z,8.07
2022-11-24T04:22:44.032Z,8.06
2022-11-24T04:25:10.726Z,8.04
2022-11-24T04:27:37.890Z,8.05
2022-11-24T04:30:07.152Z,8.05
2022-11-24T04:32:33.535Z,8.06
2022-11-24T04:34:59.984Z,8.06
2022-11-24T04:37:26.498Z,8.04
2022-11-24T04:39:54.929Z,8.03
2022-11-24T04:42:21.581Z,8.04
2022-11-24T04:44:48.035Z,8.02
2022-11-24T04:47:20.339Z,8.02
2022-11-24T04:49:48.058Z,8.01
2022-11-24T04:52:14.991Z,8.01
2022-11-24T04:54:41.496Z,8.02
2022-11-24T04:57:09.401Z,8.01
2022-11-24T04:59:35.808Z,8.07
2022-11-24T05:02:02.217Z,8.04
2022-11-24T05:04:28.738Z,8.04
2022-11-24T05:06:55.164Z,8.04
2022-11-24T05:09:21.908Z,8.03
2022-11-24T05:11:48.387Z,7.99
2022-11-24T05:14:14.836Z,7.99
2022-11-24T05:16:41.314Z,7.97
2022-11-24T05:19:08.416Z,7.93
2022-11-24T05:21:34.916Z,7.90
2022-11-24T05:24:01.405Z,7.90
2022-11-24T05:26:27.831Z,7.86
2022-11-24T05:28:54.304Z,7.80
2022-11-24T05:31:20.867Z,7.79
2022-11-24T05:33:47.452Z,7.75
2022-11-24T05:36:33.432Z,7.70
2022-11-24T05:39:00.405Z,7.72
2022-11-24T05:41:26.921Z,7.70
2022-11-24T05:43:53.376Z,7.67
2022-11-24T05:46:19.896Z,7.66
2022-11-24T05:48:46.374Z,7.64
2022-11-24T05:51:12.866Z,7.62
2022-11-24T05:53:39.281Z,7.63
2022-11-24T05:56:06.115Z,7.62
2022-11-24T05:58:32.524Z,7.62
2022-11-24T06:00:58.955Z,7.63
2022-11-24T06:03:25.355Z,7.62
2022-11-24T06:05:51.800Z,7.62
2022-11-24T06:08:18.237Z,7.59
2022-11-24T06:10:44.681Z,7.60
2022-11-24T06:13:11.143Z,7.59
2022-11-24T06:15:38.584Z,7.58
2022-11-24T06:18:05.124Z,7.58
2022-11-24T06:20:33.048Z,7.56
2022-11-24T06:23:00.663Z,7.55
2022-11-24T06:25:28.312Z,7.57
2022-11-24T06:27:55.021Z,7.54
2022-11-24T06:30:21.481Z,7.52
2022-11-24T06:32:49.903Z,7.51
2022-11-24T06:35:16.708Z,7.52
2022-11-24T06:37:43.168Z,7.50
2022-11-24T06:40:10.139Z,7.49
2022-11-24T06:42:37.261Z,7.42
2022-11-24T06:45:08.719Z,7.36
2022-11-24T06:47:36.024Z,7.33
2022-11-24T06:50:02.735Z,7.30
2022-11-24T06:52:29.275Z,7.30
2022-11-24T06:54:55.939Z,7.28
2022-11-24T06:57:22.359Z,7.28
2022-11-24T06:59:48.969Z,7.27
2022-11-24T07:02:15.445Z,7.24
2022-11-24T07:04:41.951Z,7.25
2022-11-24T07:07:08.733Z,7.26
2022-11-24T07:09:35.224Z,7.28
2022-11-24T07:12:02.331Z,7.31
2022-11-24T07:14:28.860Z,7.32
2022-11-24T07:16:55.385Z,7.32
2022-11-24T07:19:25.068Z,7.34
2022-11-24T07:21:51.828Z,7.34
2022-11-24T07:24:18.752Z,7.34
2022-11-24T07:26:45.328Z,7.35
2022-11-24T07:29:11.808Z,7.37
2022-11-24T07:31:38.339Z,7.39
2022-11-24T07:34:05.096Z,7.43
2022-11-24T07:36:31.597Z,7.43
2022-11-24T07:38:58.148Z,7.44
2022-11-24T07:41:24.609Z,7.46
2022-11-24T07:43:51.714Z,7.48
2022-11-24T07:46:19.540Z,7.49
2022-11-24T07:48:46.344Z,7.51
2022-11-24T07:51:12.956Z,7.52
2022-11-24T07:53:39.720Z,7.54
2022-11-24T07:56:06.807Z,7.55
2022-11-24T07:58:36.556Z,7.55
2022-11-24T08:01:17.783Z,7.55
2022-11-24T08:03:45.686Z,7.56
2022-11-24T08:06:25.136Z,7.55
2022-11-24T08:08:54.557Z,7.54
2022-11-24T08:11:21.126Z,7.57
2022-11-24T08:13:47.651Z,7.58
2022-11-24T08:16:17.481Z,7.58
2022-11-24T08:18:48.772Z,7.59
2022-11-24T08:21:15.292Z,7.61
2022-11-24T08:23:42.392Z,7.60
2022-11-24T08:26:13.786Z,7.62
2022-11-24T08:28:40.475Z,7.64
2022-11-24T08:31:12.556Z,7.63
2022-11-24T08:33:39.837Z,7.66
2022-11-24T08:36:14.027Z,7.70
2022-11-24T08:38:41.446Z,7.77
2022-11-24T08:41:14.128Z,7.77
2022-11-24T08:43:41.334Z,7.75
2022-11-24T08:46:13.815Z,7.73
2022-11-24T08:48:41.439Z,7.76
2022-11-24T08:51:13.298Z,7.76
2022-11-24T08:53:41.043Z,7.81
2022-11-24T08:56:09.529Z,7.85
2022-11-24T08:58:36.851Z,7.88
2022-11-24T09:01:15.422Z,7.93
2022-11-24T09:03:48.610Z,7.98
2022-11-24T09:06:23.466Z,8.02
2022-11-24T09:08:50.723Z,8.02
2022-11-24T09:11:17.415Z,8.05
2022-11-24T09:13:44.613Z,8.11
2022-11-24T09:16:14.602Z,8.11
2022-11-24T09:18:41.831Z,8.09
2022-11-24T09:21:20.555Z,8.09
2022-11-24T09:23:49.188Z,8.12
2022-11-24T09:26:27.895Z,8.13
2022-11-24T09:28:57.908Z,8.11
2022-11-24T09:31:27.344Z,8.16
2022-11-24T09:33:55.088Z,8.17
2022-11-24T09:36:22.489Z,8.18
2022-11-24T09:38:49.340Z,8.18
2022-11-24T09:41:39.360Z,8.18
2022-11-24T09:44:25.576Z,8.19
2022-11-24T09:47:15.305Z,8.21
2022-11-24T09:49:51.786Z,8.26
2022-11-24T09:52:37.500Z,8.32
2022-11-24T09:55:13.147Z,8.34
2022-11-24T09:57:43.868Z,8.37
2022-11-24T10:00:13.307Z,8.38
2022-11-24T10:02:39.937Z,8.42
2022-11-24T10:05:07.060Z,8.44
2022-11-24T10:07:40.080Z,8.50
2022-11-24T10:10:25.021Z,8.59
2022-11-24T10:13:00.777Z,8.68
2022-11-24T10:16:01.411Z,8.71
2022-11-24T10:18:46.292Z,8.67
2022-11-24T10:21:51.544Z,8.69
2022-11-24T10:24:35.751Z,8.89
2022-11-24T10:27:26.436Z,8.85
2022-11-24T10:29:52.993Z,8.88
2022-11-24T10:32:25.593Z,8.86
2022-11-24T10:34:54.127Z,8.85
2022-11-24T10:37:30.668Z,8.87
2022-11-24T10:40:04.035Z,8.89
2022-11-24T10:42:37.977Z,8.90
2022-11-24T10:45:15.151Z,8.92
2022-11-24T10:47:43.030Z,8.96
2022-11-24T10:50:26.241Z,9.00
2022-11-24T10:53:16.213Z,9.02
2022-11-24T10:55:55.052Z,9.04
2022-11-24T10:58:38.614Z,9.06
2022-11-24T11:01:14.234Z,9.07
2022-11-24T11:03:49.652Z,9.06
2022-11-24T11:06:23.028Z,9.06
2022-11-24T11:08:49.884Z,9.11
2022-11-24T11:11:19.674Z,9.14
2022-11-24T11:13:58.161Z,9.16
2022-11-24T11:16:39.104Z,9.20
2022-11-24T11:19:58.511Z,9.23
2022-11-24T11:22:32.883Z,9.30
2022-11-24T11:25:32.056Z,9.38
2022-11-24T11:28:18.581Z,9.42
2022-11-24T11:34:04.659Z,9.54
2022-11-24T11:36:33.111Z,9.57
2022-11-24T11:38:59.816Z,9.64
2022-11-24T11:41:32.336Z,9.65
2022-11-24T11:44:13.563Z,9.73
2022-11-24T11:46:40.179Z,9.86
2022-11-24T11:49:12.125Z,9.97
2022-11-24T11:51:44.386Z,10.02
2022-11-24T11:54:26.920Z,10.05
2022-11-24T11:57:03.370Z,10.03
2022-11-24T11:59:49.044Z,10.03
2022-11-24T12:02:39.850Z,10.04
2022-11-24T12:05:24.911Z,10.15
2022-11-24T12:08:10.897Z,10.16
2022-11-24T12:11:10.692Z,10.27
2022-11-24T12:13:51.438Z,10.35
2022-11-24T12:16:42.596Z,10.35
2022-11-24T12:19:24.206Z,10.32
2022-11-24T12:21:59.836Z,10.36
2022-11-24T12:24:55.416Z,10.43
2022-11-24T12:27:39.741Z,10.47
2022-11-24T12:30:15.015Z,10.48
2022-11-24T12:33:00.252Z,10.51
2022-11-24T12:35:44.180Z,10.52
2022-11-24T12:38:25.782Z,10.55
2022-11-24T12:41:25.519Z,10.58
2022-11-24T12:43:52.939Z,10.63
2022-11-24T12:46:19.417Z,10.70
2022-11-24T12:49:01.130Z,10.72
2022-11-24T12:51:32.876Z,10.80
2022-11-24T12:54:03.305Z,10.84
2022-11-24T12:56:57.710Z,10.90
2022-11-24T12:59:45.580Z,10.90
2022-11-24T13:02:18.029Z,10.90
2022-11-24T13:04:55.676Z,10.94
2022-11-24T13:07:37.995Z,10.97
2022-11-24T13:10:40.113Z,11.01
2022-11-24T13:13:11.936Z,11.15
2022-11-24T13:19:09.551Z,11.31
2022-11-24T13:21:50.803Z,11.38
2022-11-24T13:24:18.133Z,11.42
2022-11-24T13:26:50.946Z,11.44
2022-11-24T13:29:33.189Z,11.50
2022-11-24T13:32:02.672Z,11.49
2022-11-24T13:34:41.218Z,11.47
2022-11-24T13:37:29.095Z,11.51
2022-11-24T13:40:07.886Z,11.58
2022-11-24T13:43:03.200Z,11.59
2022-11-24T13:45:35.700Z,11.56
2022-11-24T13:48:02.146Z,11.61
2022-11-24T13:50:50.445Z,11.72
2022-11-24T13:53:17.057Z,11.78
2022-11-24T13:55:55.813Z,11.86
2022-11-24T13:58:29.696Z,11.93
2022-11-24T14:01:25.622Z,11.99
2022-11-24T14:04:28.791Z,12.11
2022-11-24T14:06:52.256Z,12.11
2022-11-24T14:09:33.000Z,12.24
2022-11-24T14:12:02.523Z,12.37
2022-11-24T14:14:29.114Z,12.65
2022-11-24T14:17:28.494Z,12.63
2022-11-24T14:19:57.148Z,12.55
2022-11-24T14:22:36.635Z,12.60
2022-11-24T14:25:03.864Z,12.57
2022-11-24T14:27:38.582Z,12.50
2022-11-24T14:30:08.062Z,12.56
2022-11-24T14:32:34.601Z,12.69
2022-11-24T14:35:01.277Z,12.91
2022-11-24T14:37:27.820Z,13.22
2022-11-24T14:39:54.349Z,13.15
2022-11-24T14:42:24.017Z,12.83
2022-11-24T14:44:58.712Z,12.58
2022-11-24T14:47:36.256Z,12.32
2022-11-24T14:50:10.832Z,12.08
2022-11-24T14:52:45.674Z,12.02
2022-11-24T14:55:30.763Z,11.93
2022-11-24T14:57:58.342Z,11.78
2022-11-24T15:00:24.760Z,11.66
2022-11-24T15:03:07.770Z,11.55
2022-11-24T15:05:58.537Z,11.46
2022-11-24T15:08:28.635Z,11.47
2022-11-24T15:11:03.135Z,11.29
2022-11-24T15:13:37.045Z,11.06
2022-11-24T15:16:15.872Z,10.91
2022-11-24T15:18:55.032Z,10.75
2022-11-24T15:21:32.888Z,10.66
2022-11-24T15:24:19.115Z,10.54
2022-11-24T15:26:46.249Z,10.44
2022-11-24T15:29:13.516Z,10.37
2022-11-24T15:31:42.697Z,10.29
2022-11-24T15:34:14.174Z,10.24
2022-11-24T15:36:40.655Z,10.21
2022-11-24T15:39:07.190Z,10.13
2022-11-24T15:41:33.763Z,10.08
2022-11-24T15:44:00.288Z,10.01
2022-11-24T15:46:37.823Z,9.93
2022-11-24T15:49:05.188Z,9.87
2022-11-24T15:51:31.716Z,9.82
2022-11-24T15:54:01.075Z,9.80
2022-11-24T15:56:33.857Z,9.71
2022-11-24T15:59:01.217Z,9.69
2022-11-24T16:01:31.494Z,9.64
2022-11-24T16:03:58.180Z,9.60
2022-11-24T16:06:25.567Z,9.60
2022-11-24T16:08:55.612Z,9.58
2022-11-24T16:11:22.967Z,9.60
2022-11-24T16:13:52.979Z,9.55
2022-11-24T16:16:20.970Z,9.48
2022-11-24T16:18:47.510Z,9.42
2022-11-24T16:21:13.970Z,9.38
2022-11-24T16:23:40.500Z,9.35
2022-11-24T16:26:07.297Z,9.36
2022-11-24T16:28:33.791Z,9.39
2022-11-24T16:31:00.345Z,9.37
2022-11-24T16:33:29.109Z,9.39
2022-11-24T16:35:55.627Z,9.42
2022-11-24T16:38:22.113Z,9.44
2022-11-24T16:40:53.350Z,9.43
2022-11-24T16:43:20.197Z,9.48
2022-11-24T16:45:46.808Z,9.42
2022-11-24T16:48:13.339Z,9.30
2022-11-24T16:50:39.819Z,9.27
2022-11-24T16:53:06.307Z,9.20
2022-11-24T16:55:32.787Z,9.17
2022-11-24T16:57:59.191Z,9.18
2022-11-24T17:00:25.634Z,9.14
2022-11-24T17:02:52.131Z,9.20
2022-11-24T17:05:18.575Z,9.23
2022-11-24T17:07:45.062Z,9.24
2022-11-24T17:10:11.540Z,9.25
2022-11-24T17:12:38.073Z,9.25
2022-11-24T17:18:22.483Z,9.24
2022-11-24T17:20:38.689Z,9.24
2022-11-24T17:23:05.131Z,9.23
2022-11-24T17:25:32.815Z,9.21
2022-11-24T17:27:59.287Z,9.24
2022-11-24T17:30:25.703Z,9.25
2022-11-24T17:32:56.587Z,9.27
2022-11-24T17:35:23.690Z,9.24
2022-11-24T17:37:50.119Z,9.23
2022-11-24T17:40:34.290Z,9.20
2022-11-24T17:43:00.977Z,9.16
2022-11-24T17:45:28.904Z,9.15
2022-11-24T17:47:56.213Z,9.15
2022-11-24T17:50:25.936Z,9.17
2022-11-24T17:52:53.767Z,9.18
2022-11-24T17:55:20.311Z,9.18
2022-11-24T17:57:46.757Z,9.18
2022-11-24T18:00:13.870Z,9.17
2022-11-24T18:02:40.428Z,9.16
2022-11-24T18:05:07.197Z,9.16
2022-11-24T18:07:35.924Z,9.16
2022-11-24T18:10:02.373Z,9.15
2022-11-24T18:12:28.802Z,9.15
2022-11-24T18:14:55.300Z,9.14
2022-11-24T18:17:21.775Z,9.12
2022-11-24T18:19:48.172Z,9.11
2022-11-24T18:22:14.634Z,9.13
2022-11-24T18:24:41.211Z,9.13
2022-11-24T18:27:07.977Z,9.13
2022-11-24T18:29:34.460Z,9.13
2022-11-24T18:32:01.201Z,9.09
2022-11-24T18:34:27.635Z,9.09
2022-11-24T18:36:54.233Z,9.08
2022-11-24T18:39:20.910Z,9.11
2022-11-24T18:41:47.580Z,9.09
2022-11-24T18:44:14.117Z,9.06
2022-11-24T18:46:40.683Z,9.03
2022-11-24T18:49:07.587Z,9.02
2022-11-24T18:51:34.354Z,9.02
2022-11-24T18:54:02.906Z,8.98
2022-11-24T18:56:29.657Z,8.95
2022-11-24T18:58:56.805Z,8.93
2022-11-24T19:01:26.962Z,8.94
2022-11-24T19:03:55.932Z,8.90
2022-11-24T19:06:28.863Z,8.89
2022-11-24T19:08:55.849Z,8.87
2022-11-24T19:11:28.413Z,8.84
2022-11-24T19:13:56.477Z,8.81
2022-11-24T19:16:23.830Z,8.80
2022-11-24T19:18:54.047Z,8.80
2022-11-24T19:21:21.840Z,8.77
2022-11-24T19:23:49.185Z,8.78
2022-11-24T19:26:15.796Z,8.75
2022-11-24T19:28:42.273Z,8.74
2022-11-24T19:31:11.697Z,8.71
2022-11-24T19:33:39.378Z,8.70
2022-11-24T19:36:09.036Z,8.67
2022-11-24T19:38:35.575Z,8.67
2022-11-24T19:41:06.976Z,8.66
2022-11-24T19:43:34.104Z,8.62
2022-11-24T19:46:07.365Z,8.58
2022-11-24T19:48:36.448Z,8.56
2022-11-24T19:51:05.168Z,8.52
2022-11-24T19:53:32.724Z,8.49
2022-11-24T19:56:14.441Z,8.53
2022-11-24T19:58:41.356Z,8.54
2022-11-24T20:01:24.842Z,8.51
2022-11-24T20:03:58.907Z,8.50
2022-11-24T20:06:33.132Z,8.52
2022-11-24T20:09:00.580Z,8.51
2022-11-24T20:11:28.458Z,8.52
2022-11-24T20:13:55.565Z,8.48
2022-11-24T20:16:28.141Z,8.49
2022-11-24T20:18:56.588Z,8.47
2022-11-24T20:21:25.398Z,8.44
2022-11-24T20:23:55.307Z,8.45
2022-11-24T20:26:23.478Z,8.46
2022-11-24T20:28:51.596Z,8.50
2022-11-24T20:31:21.025Z,8.52
2022-11-24T20:33:47.624Z,8.54
2022-11-24T20:36:17.276Z,8.55
2022-11-24T20:38:45.165Z,8.49
2022-11-24T20:41:17.565Z,8.48
2022-11-24T20:43:45.038Z,8.49
2022-11-24T20:46:21.348Z,8.55
2022-11-24T20:48:47.939Z,8.59
2022-11-24T20:51:21.419Z,8.59
2022-11-24T20:53:48.927Z,8.58
2022-11-24T20:56:19.969Z,8.57
2022-11-24T20:58:46.640Z,8.60
2022-11-24T21:01:19.616Z,8.60
2022-11-24T21:03:47.246Z,8.61
2022-11-24T21:06:14.652Z,8.62
2022-11-24T21:08:42.374Z,8.63
2022-11-24T21:11:11.409Z,8.65
2022-11-24T21:13:39.328Z,8.66
2022-11-24T21:16:18.838Z,8.67
2022-11-24T21:18:47.508Z,8.64
2022-11-24T21:21:14.271Z,8.63
2022-11-24T21:23:40.942Z,8.64
2022-11-24T21:26:14.913Z,8.64
2022-11-24T21:28:44.236Z,8.66
2022-11-24T21:31:13.438Z,8.68
2022-11-24T21:33:41.882Z,8.63
2022-11-24T21:36:09.108Z,8.62
2022-11-24T21:38:35.688Z,8.61
2022-11-24T21:41:13.880Z,8.62
2022-11-24T21:43:40.424Z,8.59
2022-11-24T21:46:08.640Z,8.63
2022-11-24T21:48:36.992Z,8.60
2022-11-24T21:51:06.169Z,8.62
2022-11-24T21:53:35.675Z,8.61
2022-11-24T21:56:09.554Z,8.62
2022-11-24T21:58:36.556Z,8.62
2022-11-24T22:01:05.321Z,8.63
2022-11-24T22:03:32.166Z,8.60
2022-11-24T22:06:00.291Z,8.62
2022-11-24T22:08:28.710Z,8.60
2022-11-24T22:11:12.498Z,8.62
2022-11-24T22:13:39.856Z,8.62
2022-11-24T22:16:11.790Z,8.64
2022-11-24T22:18:40.617Z,8.65
2022-11-24T22:21:10.511Z,8.62
2022-11-24T22:23:37.267Z,8.65
2022-11-24T22:26:03.789Z,8.64
2022-11-24T22:28:35.206Z,8.65
2022-11-24T22:31:06.869Z,8.69
2022-11-24T22:33:33.755Z,8.73
2022-11-24T22:36:01.002Z,8.71
2022-11-24T22:38:28.507Z,8.72
2022-11-24T22:40:55.058Z,8.74
2022-11-24T22:43:23.058Z,8.75
2022-11-24T22:45:49.813Z,8.75
2022-11-24T22:48:16.374Z,8.80
2022-11-24T22:50:42.824Z,8.84
2022-11-24T22:53:09.306Z,8.82
2022-11-24T22:55:35.843Z,8.83
2022-11-24T22:58:02.348Z,8.88
2022-11-24T23:00:28.823Z,8.88
2022-11-24T23:02:55.362Z,8.90
2022-11-24T23:05:21.833Z,8.88
2022-11-24T23:07:48.350Z,8.91
2022-11-24T23:10:14.843Z,8.94
2022-11-24T23:12:41.247Z,8.96
2022-11-24T23:15:08.127Z,8.96
2022-11-24T23:17:34.577Z,8.98
2022-11-24T23:20:00.988Z,8.99
2022-11-24T23:22:27.476Z,8.98
2022-11-24T23:24:53.901Z,8.99
2022-11-24T23:27:20.425Z,8.98
2022-11-24T23:29:46.855Z,8.99
2022-11-24T23:32:13.240Z,8.98
2022-11-24T23:34:39.717Z,9.00
2022-11-24T23:37:06.214Z,9.01
2022-11-24T23:39:32.653Z,9.02
2022-11-24T23:41:59.064Z,9.00
2022-11-24T23:44:27.097Z,8.99
2022-11-24T23:46:53.529Z,9.00
2022-11-24T23:49:20.025Z,8.97
2022-11-24T23:51:46.840Z,8.94
2022-11-24T23:54:13.431Z,8.93
2022-11-24T23:56:39.836Z,8.89
2022-11-24T23:59:06.322Z,8.83
